Friday, May 6, 2016, 10:52 AM EDT

KPOU, Poughkeepsie Dutchess Cty

Location: Wappingers Falls, NY, United States Lat: 41.633
Local Time: 10:52 AM EDT (14:52 GMT) Lon: -73.883
Time Zone: US/Eastern Elev: 167 ft

Show me the last for .
Show Decoded

2016-05-06 09:53 METAR KPOU 061353Z 01008KT 2 1/2SM RA BR SCT008 BKN012 OVC022 11/09 A2974 RMK
                 AO2 SLP068 P0020 T01110089 =
2016-05-06 09:21 METAR KPOU 061321Z 05005KT 2 1/2SM RA BR SCT008 BKN012 OVC017 11/09 A2975 RMK
                 AO2 P0007 T01110089 =
2016-05-06 09:08 METAR KPOU 061308Z 01006KT 2 1/2SM -RA BR BKN012 OVC040 11/09 A2974 RMK AO2
                 P0003 T01110094 =
2016-05-06 08:56 METAR KPOU 061256Z 36006KT 2 1/2SM -RA BR FEW009 FEW012 OVC040 11/09 A2973 RMK
                 AO2 P0001 T01110089 =
2016-05-06 08:53 METAR KPOU 061253Z 01006KT 3SM RA BR FEW010 OVC040 11/09 A2973 RMK AO2 SLP063
                 P0003 T01110089 =
2016-05-06 07:53 METAR KPOU 061153Z 04003KT 5SM -RA BR OVC045 11/09 A2973 RMK AO2 RAB1055 SLP063
                 P0013 60025 70025 T01060089 10128 20106 53009 =
2016-05-06 06:53 METAR KPOU 061053Z AUTO 09003KT 10SM SCT040 OVC049 11/08 A2971 RMK AO2 RAE22
                 SLP057 P0003 T01060083 TSNO =
2016-05-06 05:53 METAR KPOU 060953Z AUTO 36003KT 8SM -RA BKN050 OVC080 11/08 A2969 RMK AO2 SLP049
                 P0009 T01060083 TSNO =
2016-05-06 04:53 METAR KPOU 060853Z AUTO 08005KT 8SM -RA OVC037 12/07 A2970 RMK AO2 RAB37 SLP053
                 P0000 60000 T01170072 53011 TSNO =
2016-05-06 03:53 METAR KPOU 060753Z AUTO 11003KT 10SM OVC038 11/08 A2969 RMK AO2 SLP049 T01110078
                 TSNO =
2016-05-06 02:53 METAR KPOU 060653Z AUTO 30003KT 10SM OVC040 12/07 A2968 RMK AO2 SLP046 T01220072
                 TSNO =
2016-05-06 01:53 METAR KPOU 060553Z AUTO 36003KT 10SM SCT040 OVC047 12/07 A2967 RMK AO2 SLP043
                 T01220072 10144 20122 58005 TSNO =
2016-05-06 00:53 METAR KPOU 060453Z AUTO 02006KT 10SM OVC039 13/07 A2968 RMK AO2 SLP047 T01280067
                 401560089 TSNO =
2016-05-05 23:53 METAR KPOU 060353Z AUTO 06004KT 10SM OVC036 13/07 A2969 RMK AO2 SLP050 T01280067
                 TSNO =
2016-05-05 22:53 METAR KPOU 060253Z AUTO 06006KT 10SM OVC032 13/07 A2968 RMK AO2 SLP048 T01330072
                 51007 TSNO =
2016-05-05 21:53 METAR KPOU 060153Z AUTO 03010KT 10SM OVC031 14/07 A2968 RMK AO2 SLP048 T01390072
                 TSNO =
2016-05-05 20:53 METAR KPOU 060053Z AUTO 04008G16KT 10SM OVC037 14/07 A2967 RMK AO2 SLP045
                 T01390067 TSNO =
2016-05-05 19:53 METAR KPOU 052353Z 03009KT 10SM OVC038 14/07 A2966 RMK AO2 SLP040 T01440067
                 10156 20144 55000 =
2016-05-05 18:53 METAR KPOU 052253Z 04012KT 10SM OVC038 15/07 A2965 RMK AO2 SLP037 T01500067 =
2016-05-05 18:00 METAR KPOU 052200Z 03011KT 10SM OVC038 15/07 A2965 RMK AO2 T01500067 =
2016-05-05 17:53 METAR KPOU 052153Z 04012KT 10SM OVC028 15/07 A2965 RMK AO2 SLP037 T01500067 =
2016-05-05 16:53 METAR KPOU 052053Z 03015G20KT 10SM OVC028 16/07 A2966 RMK AO2 SLP040 T01560067
                 55010 =
2016-05-05 15:53 METAR KPOU 051953Z 01012KT 10SM OVC028 15/07 A2966 RMK AO2 SLP040 T01500067 =
2016-05-05 14:53 METAR KPOU 051853Z 36010KT 10SM OVC028 14/07 A2967 RMK AO2 SLP045 T01440067 =
2016-05-05 13:53 METAR KPOU 051753Z 04010KT 10SM OVC028 14/07 A2969 RMK AO2 SLP050 T01440067
                 10144 20100 58014 =
2016-05-05 12:53 METAR KPOU 051653Z AUTO 01011G20KT 10SM OVC028 14/06 A2971 RMK AO2 SLP056
                 T01390061 TSNO =
2016-05-05 11:53 METAR KPOU 051553Z AUTO 01010G18KT 10SM OVC026 13/06 A2972 RMK AO2 SLP060
                 T01280061 TSNO =
2016-05-05 10:53 METAR KPOU 051453Z AUTO 01009KT 10SM OVC024 12/06 A2973 RMK AO2 SLP065 T01220061
                 56004 TSNO =

Support USWX by starting your Amazon purchase here.